sensor_id;sensor_type;location;lat;lon;timestamp;P1;durP1;ratioP1;P2;durP2;ratioP2
18568;SDS011;14780;48.316;-1.050;2022-10-19T00:02:37;4.47;;;2.53;;
18568;SDS011;14780;48.316;-1.050;2022-10-19T00:05:21;4.43;;;2.50;;
18568;SDS011;14780;48.316;-1.050;2022-10-19T00:08:06;3.58;;;2.30;;
18568;SDS011;14780;48.316;-1.050;2022-10-19T00:10:51;3.17;;;2.22;;
18568;SDS011;14780;48.316;-1.050;2022-10-19T00:13:36;3.30;;;2.50;;
18568;SDS011;14780;48.316;-1.050;2022-10-19T00:16:21;3.47;;;2.55;;
18568;SDS011;14780;48.316;-1.050;2022-10-19T00:19:10;3.08;;;2.50;;
18568;SDS011;14780;48.316;-1.050;2022-10-19T00:21:57;4.70;;;2.10;;
18568;SDS011;14780;48.316;-1.050;2022-10-19T00:24:41;3.13;;;2.05;;
18568;SDS011;14780;48.316;-1.050;2022-10-19T00:27:27;3.55;;;2.50;;
18568;SDS011;14780;48.316;-1.050;2022-10-19T00:30:11;3.40;;;2.50;;
18568;SDS011;14780;48.316;-1.050;2022-10-19T00:32:56;3.47;;;2.30;;
18568;SDS011;14780;48.316;-1.050;2022-10-19T00:35:40;2.55;;;2.10;;
18568;SDS011;14780;48.316;-1.050;2022-10-19T00:38:26;2.85;;;2.20;;
18568;SDS011;14780;48.316;-1.050;2022-10-19T00:41:11;2.88;;;2.20;;
18568;SDS011;14780;48.316;-1.050;2022-10-19T00:43:58;4.63;;;2.53;;
18568;SDS011;14780;48.316;-1.050;2022-10-19T00:46:48;2.97;;;2.47;;
18568;SDS011;14780;48.316;-1.050;2022-10-19T00:49:35;3.22;;;2.20;;
18568;SDS011;14780;48.316;-1.050;2022-10-19T00:52:24;3.13;;;2.17;;
18568;SDS011;14780;48.316;-1.050;2022-10-19T00:55:10;3.03;;;2.20;;
18568;SDS011;14780;48.316;-1.050;2022-10-19T00:58:04;2.15;;;1.90;;
18568;SDS011;14780;48.316;-1.050;2022-10-19T01:00:59;3.13;;;2.53;;
18568;SDS011;14780;48.316;-1.050;2022-10-19T01:03:47;2.45;;;2.17;;
18568;SDS011;14780;48.316;-1.050;2022-10-19T01:06:32;2.75;;;2.20;;
18568;SDS011;14780;48.316;-1.050;2022-10-19T01:09:17;4.78;;;2.30;;
18568;SDS011;14780;48.316;-1.050;2022-10-19T01:12:09;3.42;;;2.42;;
18568;SDS011;14780;48.316;-1.050;2022-10-19T01:18:18;4.20;;;2.10;;
18568;SDS011;14780;48.316;-1.050;2022-10-19T01:21:12;2.95;;;2.30;;
18568;SDS011;14780;48.316;-1.050;2022-10-19T01:30:58;5.03;;;2.42;;
18568;SDS011;14780;48.316;-1.050;2022-10-19T01:39:11;3.50;;;2.30;;
18568;SDS011;14780;48.316;-1.050;2022-10-19T01:50:36;2.35;;;2.00;;
18568;SDS011;14780;48.316;-1.050;2022-10-19T01:53:26;3.67;;;2.10;;
18568;SDS011;14780;48.316;-1.050;2022-10-19T01:56:16;3.38;;;2.30;;
18568;SDS011;14780;48.316;-1.050;2022-10-19T01:59:05;3.83;;;2.47;;
18568;SDS011;14780;48.316;-1.050;2022-10-19T02:01:52;2.50;;;2.10;;
18568;SDS011;14780;48.316;-1.050;2022-10-19T02:04:38;2.67;;;2.05;;
18568;SDS011;14780;48.316;-1.050;2022-10-19T02:07:25;4.38;;;2.40;;
18568;SDS011;14780;48.316;-1.050;2022-10-19T02:10:10;3.10;;;2.13;;
18568;SDS011;14780;48.316;-1.050;2022-10-19T02:12:55;2.60;;;2.15;;
18568;SDS011;14780;48.316;-1.050;2022-10-19T02:15:43;3.08;;;2.30;;
18568;SDS011;14780;48.316;-1.050;2022-10-19T02:18:35;2.47;;;2.03;;
18568;SDS011;14780;48.316;-1.050;2022-10-19T02:21:26;2.30;;;2.10;;
18568;SDS011;14780;48.316;-1.050;2022-10-19T02:24:11;2.40;;;2.13;;
18568;SDS011;14780;48.316;-1.050;2022-10-19T02:26:56;2.08;;;1.80;;
18568;SDS011;14780;48.316;-1.050;2022-10-19T02:29:43;3.83;;;2.10;;
18568;SDS011;14780;48.316;-1.050;2022-10-19T02:32:28;3.25;;;2.00;;
18568;SDS011;14780;48.316;-1.050;2022-10-19T02:35:12;2.50;;;2.10;;
18568;SDS011;14780;48.316;-1.050;2022-10-19T02:37:58;3.13;;;2.40;;
18568;SDS011;14780;48.316;-1.050;2022-10-19T02:41:01;1.88;;;1.77;;
18568;SDS011;14780;48.316;-1.050;2022-10-19T02:44:25;2.85;;;2.10;;
18568;SDS011;14780;48.316;-1.050;2022-10-19T02:47:21;2.97;;;2.20;;
18568;SDS011;14780;48.316;-1.050;2022-10-19T02:50:10;2.72;;;2.10;;
18568;SDS011;14780;48.316;-1.050;2022-10-19T02:52:59;2.53;;;2.22;;
18568;SDS011;14780;48.316;-1.050;2022-10-19T02:55:45;3.35;;;2.30;;
18568;SDS011;14780;48.316;-1.050;2022-10-19T02:58:31;4.78;;;2.10;;
18568;SDS011;14780;48.316;-1.050;2022-10-19T03:01:16;3.00;;;2.25;;
18568;SDS011;14780;48.316;-1.050;2022-10-19T03:04:01;2.67;;;2.08;;
18568;SDS011;14780;48.316;-1.050;2022-10-19T03:06:46;2.92;;;2.03;;
18568;SDS011;14780;48.316;-1.050;2022-10-19T03:09:30;2.60;;;2.08;;
18568;SDS011;14780;48.316;-1.050;2022-10-19T03:12:15;2.75;;;2.00;;
18568;SDS011;14780;48.316;-1.050;2022-10-19T03:15:01;2.60;;;2.05;;
18568;SDS011;14780;48.316;-1.050;2022-10-19T03:17:46;3.03;;;2.17;;
18568;SDS011;14780;48.316;-1.050;2022-10-19T03:20:31;2.53;;;2.20;;
18568;SDS011;14780;48.316;-1.050;2022-10-19T03:23:16;2.25;;;1.90;;
18568;SDS011;14780;48.316;-1.050;2022-10-19T03:26:00;2.38;;;1.85;;
18568;SDS011;14780;48.316;-1.050;2022-10-19T03:28:46;2.28;;;2.00;;
18568;SDS011;14780;48.316;-1.050;2022-10-19T03:31:31;2.70;;;2.00;;
18568;SDS011;14780;48.316;-1.050;2022-10-19T03:34:15;2.13;;;1.92;;
18568;SDS011;14780;48.316;-1.050;2022-10-19T03:37:00;2.10;;;1.90;;
18568;SDS011;14780;48.316;-1.050;2022-10-19T03:39:44;2.63;;;2.00;;
18568;SDS011;14780;48.316;-1.050;2022-10-19T03:42:29;3.05;;;2.22;;
18568;SDS011;14780;48.316;-1.050;2022-10-19T03:45:13;2.53;;;1.95;;
18568;SDS011;14780;48.316;-1.050;2022-10-19T03:47:58;2.40;;;1.83;;
18568;SDS011;14780;48.316;-1.050;2022-10-19T03:50:43;2.95;;;2.10;;
18568;SDS011;14780;48.316;-1.050;2022-10-19T03:53:27;2.75;;;2.13;;
18568;SDS011;14780;48.316;-1.050;2022-10-19T03:56:17;2.83;;;2.22;;
18568;SDS011;14780;48.316;-1.050;2022-10-19T03:59:05;2.67;;;1.90;;
18568;SDS011;14780;48.316;-1.050;2022-10-19T04:01:50;2.30;;;2.10;;
18568;SDS011;14780;48.316;-1.050;2022-10-19T04:04:35;2.67;;;1.80;;
18568;SDS011;14780;48.316;-1.050;2022-10-19T04:07:19;2.63;;;1.90;;
18568;SDS011;14780;48.316;-1.050;2022-10-19T04:10:04;2.25;;;2.05;;
18568;SDS011;14780;48.316;-1.050;2022-10-19T04:12:49;2.30;;;2.10;;
18568;SDS011;14780;48.316;-1.050;2022-10-19T04:15:34;2.40;;;2.00;;
18568;SDS011;14780;48.316;-1.050;2022-10-19T04:18:19;2.10;;;1.90;;
18568;SDS011;14780;48.316;-1.050;2022-10-19T04:21:04;3.35;;;1.90;;
18568;SDS011;14780;48.316;-1.050;2022-10-19T04:23:49;2.55;;;2.20;;
18568;SDS011;14780;48.316;-1.050;2022-10-19T04:26:54;3.22;;;1.95;;
18568;SDS011;14780;48.316;-1.050;2022-10-19T04:29:39;2.35;;;2.15;;
18568;SDS011;14780;48.316;-1.050;2022-10-19T04:32:23;1.92;;;1.77;;
18568;SDS011;14780;48.316;-1.050;2022-10-19T04:35:08;2.70;;;1.90;;
18568;SDS011;14780;48.316;-1.050;2022-10-19T04:37:53;4.10;;;2.10;;
18568;SDS011;14780;48.316;-1.050;2022-10-19T04:40:37;2.83;;;1.83;;
18568;SDS011;14780;48.316;-1.050;2022-10-19T04:43:22;2.03;;;1.73;;
18568;SDS011;14780;48.316;-1.050;2022-10-19T04:46:09;2.10;;;1.90;;
18568;SDS011;14780;48.316;-1.050;2022-10-19T04:48:55;3.22;;;2.30;;
18568;SDS011;14780;48.316;-1.050;2022-10-19T04:51:42;3.35;;;2.00;;
18568;SDS011;14780;48.316;-1.050;2022-10-19T04:54:26;2.42;;;2.00;;
18568;SDS011;14780;48.316;-1.050;2022-10-19T04:57:11;2.38;;;1.92;;
18568;SDS011;14780;48.316;-1.050;2022-10-19T04:59:56;3.17;;;1.90;;
18568;SDS011;14780;48.316;-1.050;2022-10-19T05:02:44;2.35;;;2.00;;
18568;SDS011;14780;48.316;-1.050;2022-10-19T05:05:30;2.53;;;2.03;;
18568;SDS011;14780;48.316;-1.050;2022-10-19T05:08:15;2.92;;;1.90;;
18568;SDS011;14780;48.316;-1.050;2022-10-19T05:11:01;3.10;;;2.10;;
18568;SDS011;14780;48.316;-1.050;2022-10-19T05:13:51;2.35;;;1.85;;
18568;SDS011;14780;48.316;-1.050;2022-10-19T05:16:36;3.17;;;2.13;;
18568;SDS011;14780;48.316;-1.050;2022-10-19T05:19:20;2.20;;;1.70;;
18568;SDS011;14780;48.316;-1.050;2022-10-19T05:22:05;2.05;;;1.85;;
18568;SDS011;14780;48.316;-1.050;2022-10-19T05:24:50;2.95;;;2.08;;
18568;SDS011;14780;48.316;-1.050;2022-10-19T05:27:35;2.38;;;2.10;;
18568;SDS011;14780;48.316;-1.050;2022-10-19T05:30:20;4.25;;;2.28;;
18568;SDS011;14780;48.316;-1.050;2022-10-19T05:33:04;72.82;;;46.60;;
18568;SDS011;14780;48.316;-1.050;2022-10-19T05:35:49;134.63;;;91.07;;
18568;SDS011;14780;48.316;-1.050;2022-10-19T05:38:33;126.18;;;87.43;;
18568;SDS011;14780;48.316;-1.050;2022-10-19T05:41:18;120.00;;;82.18;;
18568;SDS011;14780;48.316;-1.050;2022-10-19T05:44:04;120.10;;;80.93;;
18568;SDS011;14780;48.316;-1.050;2022-10-19T05:46:49;117.45;;;81.38;;
18568;SDS011;14780;48.316;-1.050;2022-10-19T05:49:35;110.88;;;78.88;;
18568;SDS011;14780;48.316;-1.050;2022-10-19T05:52:19;113.90;;;76.13;;
18568;SDS011;14780;48.316;-1.050;2022-10-19T05:55:04;109.68;;;77.43;;
18568;SDS011;14780;48.316;-1.050;2022-10-19T05:57:49;107.13;;;74.50;;
18568;SDS011;14780;48.316;-1.050;2022-10-19T06:00:35;112.05;;;73.45;;
18568;SDS011;14780;48.316;-1.050;2022-10-19T06:03:20;101.10;;;70.38;;
18568;SDS011;14780;48.316;-1.050;2022-10-19T06:06:06;103.82;;;67.82;;
18568;SDS011;14780;48.316;-1.050;2022-10-19T06:08:52;97.65;;;66.85;;
18568;SDS011;14780;48.316;-1.050;2022-10-19T06:11:39;91.20;;;63.72;;
18568;SDS011;14780;48.316;-1.050;2022-10-19T06:14:24;93.85;;;63.38;;
18568;SDS011;14780;48.316;-1.050;2022-10-19T06:17:09;95.65;;;61.83;;
18568;SDS011;14780;48.316;-1.050;2022-10-19T06:19:53;90.85;;;58.20;;
18568;SDS011;14780;48.316;-1.050;2022-10-19T06:22:38;88.65;;;58.42;;
18568;SDS011;14780;48.316;-1.050;2022-10-19T06:25:25;93.55;;;58.08;;
18568;SDS011;14780;48.316;-1.050;2022-10-19T06:28:09;83.60;;;56.10;;
18568;SDS011;14780;48.316;-1.050;2022-10-19T06:30:55;78.93;;;55.42;;
18568;SDS011;14780;48.316;-1.050;2022-10-19T06:33:41;81.47;;;54.25;;
18568;SDS011;14780;48.316;-1.050;2022-10-19T06:36:28;74.20;;;52.25;;
18568;SDS011;14780;48.316;-1.050;2022-10-19T06:39:13;75.70;;;51.95;;
18568;SDS011;14780;48.316;-1.050;2022-10-19T06:41:58;71.93;;;48.47;;
18568;SDS011;14780;48.316;-1.050;2022-10-19T06:44:42;73.20;;;47.75;;
18568;SDS011;14780;48.316;-1.050;2022-10-19T06:47:28;75.95;;;49.00;;
18568;SDS011;14780;48.316;-1.050;2022-10-19T06:50:15;68.20;;;46.83;;
18568;SDS011;14780;48.316;-1.050;2022-10-19T06:53:00;69.45;;;46.60;;
18568;SDS011;14780;48.316;-1.050;2022-10-19T06:55:45;73.53;;;47.65;;
18568;SDS011;14780;48.316;-1.050;2022-10-19T06:58:30;65.70;;;43.30;;
18568;SDS011;14780;48.316;-1.050;2022-10-19T07:01:19;66.10;;;46.40;;
18568;SDS011;14780;48.316;-1.050;2022-10-19T07:04:04;66.38;;;43.92;;
18568;SDS011;14780;48.316;-1.050;2022-10-19T07:06:48;64.72;;;45.28;;
18568;SDS011;14780;48.316;-1.050;2022-10-19T07:09:34;70.40;;;46.60;;
18568;SDS011;14780;48.316;-1.050;2022-10-19T07:12:19;65.20;;;43.00;;
18568;SDS011;14780;48.316;-1.050;2022-10-19T07:15:03;60.05;;;41.53;;
18568;SDS011;14780;48.316;-1.050;2022-10-19T07:17:48;60.42;;;41.42;;
18568;SDS011;14780;48.316;-1.050;2022-10-19T07:20:35;56.17;;;39.95;;
18568;SDS011;14780;48.316;-1.050;2022-10-19T07:23:19;56.95;;;38.50;;
18568;SDS011;14780;48.316;-1.050;2022-10-19T07:26:12;55.67;;;38.28;;
18568;SDS011;14780;48.316;-1.050;2022-10-19T07:29:04;51.90;;;36.22;;
18568;SDS011;14780;48.316;-1.050;2022-10-19T07:31:48;52.67;;;37.45;;
18568;SDS011;14780;48.316;-1.050;2022-10-19T07:34:33;55.28;;;35.97;;
18568;SDS011;14780;48.316;-1.050;2022-10-19T07:37:18;47.65;;;34.53;;
18568;SDS011;14780;48.316;-1.050;2022-10-19T07:40:03;50.70;;;34.63;;
18568;SDS011;14780;48.316;-1.050;2022-10-19T07:42:48;43.25;;;30.45;;
18568;SDS011;14780;48.316;-1.050;2022-10-19T07:45:32;42.40;;;29.83;;
18568;SDS011;14780;48.316;-1.050;2022-10-19T07:48:17;40.08;;;28.52;;
18568;SDS011;14780;48.316;-1.050;2022-10-19T07:51:02;36.38;;;26.13;;
18568;SDS011;14780;48.316;-1.050;2022-10-19T07:53:49;39.92;;;26.02;;
18568;SDS011;14780;48.316;-1.050;2022-10-19T07:56:34;41.58;;;29.30;;
18568;SDS011;14780;48.316;-1.050;2022-10-19T07:59:19;40.50;;;28.40;;
18568;SDS011;14780;48.316;-1.050;2022-10-19T08:02:04;35.72;;;24.85;;
18568;SDS011;14780;48.316;-1.050;2022-10-19T08:04:57;31.80;;;23.20;;
18568;SDS011;14780;48.316;-1.050;2022-10-19T08:07:41;32.97;;;22.80;;
18568;SDS011;14780;48.316;-1.050;2022-10-19T08:10:26;35.83;;;23.33;;
18568;SDS011;14780;48.316;-1.050;2022-10-19T08:13:10;32.63;;;22.13;;
18568;SDS011;14780;48.316;-1.050;2022-10-19T08:15:55;32.97;;;23.25;;
18568;SDS011;14780;48.316;-1.050;2022-10-19T08:18:40;28.45;;;20.52;;
18568;SDS011;14780;48.316;-1.050;2022-10-19T08:21:25;28.17;;;20.58;;
18568;SDS011;14780;48.316;-1.050;2022-10-19T08:24:12;27.90;;;19.90;;
18568;SDS011;14780;48.316;-1.050;2022-10-19T08:26:58;27.48;;;19.38;;
18568;SDS011;14780;48.316;-1.050;2022-10-19T08:29:45;27.55;;;18.83;;
18568;SDS011;14780;48.316;-1.050;2022-10-19T08:32:29;25.20;;;18.42;;
18568;SDS011;14780;48.316;-1.050;2022-10-19T08:35:14;26.80;;;19.40;;
18568;SDS011;14780;48.316;-1.050;2022-10-19T08:37:59;25.88;;;17.88;;
18568;SDS011;14780;48.316;-1.050;2022-10-19T08:40:44;25.55;;;16.95;;
18568;SDS011;14780;48.316;-1.050;2022-10-19T08:43:33;21.15;;;15.55;;
18568;SDS011;14780;48.316;-1.050;2022-10-19T08:46:24;24.75;;;15.82;;
18568;SDS011;14780;48.316;-1.050;2022-10-19T08:49:32;18.80;;;14.48;;
18568;SDS011;14780;48.316;-1.050;2022-10-19T08:52:21;23.33;;;15.00;;
18568;SDS011;14780;48.316;-1.050;2022-10-19T08:55:13;21.02;;;15.77;;
18568;SDS011;14780;48.316;-1.050;2022-10-19T08:58:21;23.15;;;14.75;;
18568;SDS011;14780;48.316;-1.050;2022-10-19T09:04:32;19.60;;;13.98;;
18568;SDS011;14780;48.316;-1.050;2022-10-19T09:07:34;23.27;;;14.75;;
18568;SDS011;14780;48.316;-1.050;2022-10-19T09:10:28;19.35;;;15.07;;
18568;SDS011;14780;48.316;-1.050;2022-10-19T09:16:24;21.38;;;14.75;;
18568;SDS011;14780;48.316;-1.050;2022-10-19T09:19:17;20.55;;;14.38;;
18568;SDS011;14780;48.316;-1.050;2022-10-19T09:22:18;17.70;;;13.10;;
18568;SDS011;14780;48.316;-1.050;2022-10-19T09:25:18;19.08;;;14.73;;
18568;SDS011;14780;48.316;-1.050;2022-10-19T09:31:17;18.40;;;13.70;;
18568;SDS011;14780;48.316;-1.050;2022-10-19T09:34:15;21.27;;;13.07;;
18568;SDS011;14780;48.316;-1.050;2022-10-19T09:37:07;18.67;;;13.70;;
18568;SDS011;14780;48.316;-1.050;2022-10-19T09:39:54;20.48;;;13.93;;
18568;SDS011;14780;48.316;-1.050;2022-10-19T09:42:40;19.80;;;13.88;;
18568;SDS011;14780;48.316;-1.050;2022-10-19T09:45:30;19.50;;;14.65;;
18568;SDS011;14780;48.316;-1.050;2022-10-19T09:48:33;17.48;;;12.82;;
18568;SDS011;14780;48.316;-1.050;2022-10-19T09:51:25;19.80;;;13.02;;
18568;SDS011;14780;48.316;-1.050;2022-10-19T09:54:21;20.73;;;13.57;;
18568;SDS011;14780;48.316;-1.050;2022-10-19T09:57:21;18.92;;;12.93;;
18568;SDS011;14780;48.316;-1.050;2022-10-19T10:00:15;19.95;;;13.75;;
18568;SDS011;14780;48.316;-1.050;2022-10-19T10:06:07;19.73;;;14.07;;
18568;SDS011;14780;48.316;-1.050;2022-10-19T10:08:53;18.15;;;13.68;;
18568;SDS011;14780;48.316;-1.050;2022-10-19T10:11:41;19.33;;;12.82;;
18568;SDS011;14780;48.316;-1.050;2022-10-19T10:14:29;22.75;;;13.70;;
18568;SDS011;14780;48.316;-1.050;2022-10-19T10:17:20;19.98;;;13.65;;
18568;SDS011;14780;48.316;-1.050;2022-10-19T10:23:13;16.90;;;12.88;;
18568;SDS011;14780;48.316;-1.050;2022-10-19T10:29:00;20.13;;;13.18;;
18568;SDS011;14780;48.316;-1.050;2022-10-19T10:32:27;17.52;;;12.13;;
18568;SDS011;14780;48.316;-1.050;2022-10-19T10:34:59;16.13;;;11.18;;
18568;SDS011;14780;48.316;-1.050;2022-10-19T10:37:46;15.95;;;10.80;;
18568;SDS011;14780;48.316;-1.050;2022-10-19T10:40:32;16.52;;;11.65;;
18568;SDS011;14780;48.316;-1.050;2022-10-19T10:43:17;15.32;;;11.10;;
18568;SDS011;14780;48.316;-1.050;2022-10-19T10:46:11;14.63;;;10.50;;
18568;SDS011;14780;48.316;-1.050;2022-10-19T10:49:03;16.30;;;11.23;;
18568;SDS011;14780;48.316;-1.050;2022-10-19T10:51:51;15.05;;;10.35;;
18568;SDS011;14780;48.316;-1.050;2022-10-19T10:54:39;16.40;;;9.80;;
18568;SDS011;14780;48.316;-1.050;2022-10-19T10:57:41;15.40;;;10.90;;
18568;SDS011;14780;48.316;-1.050;2022-10-19T11:00:30;12.85;;;9.98;;
18568;SDS011;14780;48.316;-1.050;2022-10-19T11:03:26;15.48;;;10.45;;
18568;SDS011;14780;48.316;-1.050;2022-10-19T11:06:11;13.50;;;9.57;;
18568;SDS011;14780;48.316;-1.050;2022-10-19T11:09:06;12.77;;;10.00;;
18568;SDS011;14780;48.316;-1.050;2022-10-19T11:11:52;18.33;;;10.27;;
18568;SDS011;14780;48.316;-1.050;2022-10-19T11:14:47;12.95;;;9.50;;
18568;SDS011;14780;48.316;-1.050;2022-10-19T11:17:50;13.07;;;9.25;;
18568;SDS011;14780;48.316;-1.050;2022-10-19T11:20:48;13.07;;;9.73;;
18568;SDS011;14780;48.316;-1.050;2022-10-19T11:30:21;12.70;;;8.82;;
18568;SDS011;14780;48.316;-1.050;2022-10-19T11:36:52;11.80;;;9.02;;
18568;SDS011;14780;48.316;-1.050;2022-10-19T11:54:58;13.70;;;7.13;;
18568;SDS011;14780;48.316;-1.050;2022-10-19T11:57:54;9.52;;;7.20;;
18568;SDS011;14780;48.316;-1.050;2022-10-19T12:00:53;13.27;;;7.45;;
18568;SDS011;14780;48.316;-1.050;2022-10-19T12:12:27;11.68;;;6.55;;
18568;SDS011;14780;48.316;-1.050;2022-10-19T12:15:23;9.88;;;6.50;;
18568;SDS011;14780;48.316;-1.050;2022-10-19T12:21:34;11.05;;;5.97;;
18568;SDS011;14780;48.316;-1.050;2022-10-19T12:24:22;10.55;;;5.70;;
18568;SDS011;14780;48.316;-1.050;2022-10-19T12:27:12;11.68;;;6.68;;
18568;SDS011;14780;48.316;-1.050;2022-10-19T12:30:07;9.43;;;6.35;;
18568;SDS011;14780;48.316;-1.050;2022-10-19T12:39:29;10.10;;;5.85;;
18568;SDS011;14780;48.316;-1.050;2022-10-19T12:45:43;9.38;;;5.47;;
18568;SDS011;14780;48.316;-1.050;2022-10-19T12:48:45;10.27;;;5.13;;
18568;SDS011;14780;48.316;-1.050;2022-10-19T12:51:49;12.52;;;5.60;;
18568;SDS011;14780;48.316;-1.050;2022-10-19T12:54:36;10.85;;;5.70;;
18568;SDS011;14780;48.316;-1.050;2022-10-19T12:57:27;7.40;;;5.22;;
18568;SDS011;14780;48.316;-1.050;2022-10-19T13:00:20;9.27;;;5.60;;
18568;SDS011;14780;48.316;-1.050;2022-10-19T13:03:06;7.10;;;4.88;;
18568;SDS011;14780;48.316;-1.050;2022-10-19T13:06:10;7.47;;;4.95;;
18568;SDS011;14780;48.316;-1.050;2022-10-19T13:09:05;9.25;;;5.10;;
18568;SDS011;14780;48.316;-1.050;2022-10-19T13:14:59;5.95;;;4.47;;
18568;SDS011;14780;48.316;-1.050;2022-10-19T13:17:46;7.75;;;5.28;;
18568;SDS011;14780;48.316;-1.050;2022-10-19T13:23:36;12.60;;;5.40;;
18568;SDS011;14780;48.316;-1.050;2022-10-19T13:26:22;8.50;;;4.68;;
18568;SDS011;14780;48.316;-1.050;2022-10-19T13:29:25;9.15;;;5.18;;
18568;SDS011;14780;48.316;-1.050;2022-10-19T13:35:28;7.53;;;4.47;;
18568;SDS011;14780;48.316;-1.050;2022-10-19T13:38:19;8.43;;;4.55;;
18568;SDS011;14780;48.316;-1.050;2022-10-19T13:50:14;5.90;;;4.07;;
18568;SDS011;14780;48.316;-1.050;2022-10-19T13:53:23;6.80;;;4.68;;
18568;SDS011;14780;48.316;-1.050;2022-10-19T13:56:34;9.15;;;4.70;;
18568;SDS011;14780;48.316;-1.050;2022-10-19T14:15:22;9.60;;;4.38;;
18568;SDS011;14780;48.316;-1.050;2022-10-19T14:21:17;9.30;;;4.32;;
18568;SDS011;14780;48.316;-1.050;2022-10-19T14:24:23;9.88;;;4.32;;
18568;SDS011;14780;48.316;-1.050;2022-10-19T14:27:15;7.25;;;4.43;;
18568;SDS011;14780;48.316;-1.050;2022-10-19T14:30:20;6.60;;;4.20;;
18568;SDS011;14780;48.316;-1.050;2022-10-19T14:33:08;7.57;;;4.30;;
18568;SDS011;14780;48.316;-1.050;2022-10-19T14:35:57;11.27;;;4.43;;
18568;SDS011;14780;48.316;-1.050;2022-10-19T14:38:42;7.38;;;4.18;;
18568;SDS011;14780;48.316;-1.050;2022-10-19T14:41:29;6.47;;;4.15;;
18568;SDS011;14780;48.316;-1.050;2022-10-19T14:47:32;7.65;;;3.95;;
18568;SDS011;14780;48.316;-1.050;2022-10-19T14:50:18;6.85;;;3.70;;
18568;SDS011;14780;48.316;-1.050;2022-10-19T14:53:32;6.30;;;3.70;;
18568;SDS011;14780;48.316;-1.050;2022-10-19T14:56:36;7.38;;;4.13;;
18568;SDS011;14780;48.316;-1.050;2022-10-19T15:02:41;6.50;;;3.78;;
18568;SDS011;14780;48.316;-1.050;2022-10-19T15:05:32;10.45;;;4.10;;
18568;SDS011;14780;48.316;-1.050;2022-10-19T15:08:28;5.93;;;3.95;;
18568;SDS011;14780;48.316;-1.050;2022-10-19T15:11:32;8.10;;;4.32;;
18568;SDS011;14780;48.316;-1.050;2022-10-19T15:14:23;6.53;;;4.05;;
18568;SDS011;14780;48.316;-1.050;2022-10-19T15:20:19;7.03;;;3.95;;
18568;SDS011;14780;48.316;-1.050;2022-10-19T15:23:30;7.88;;;3.78;;
18568;SDS011;14780;48.316;-1.050;2022-10-19T15:29:17;7.05;;;3.72;;
18568;SDS011;14780;48.316;-1.050;2022-10-19T15:32:14;7.55;;;3.80;;
18568;SDS011;14780;48.316;-1.050;2022-10-19T15:35:09;6.60;;;3.95;;
18568;SDS011;14780;48.316;-1.050;2022-10-19T15:38:01;7.60;;;3.80;;
18568;SDS011;14780;48.316;-1.050;2022-10-19T15:40:47;7.13;;;3.80;;
18568;SDS011;14780;48.316;-1.050;2022-10-19T15:43:42;5.78;;;3.60;;
18568;SDS011;14780;48.316;-1.050;2022-10-19T15:49:50;6.10;;;3.95;;
18568;SDS011;14780;48.316;-1.050;2022-10-19T15:52:43;6.53;;;3.50;;
18568;SDS011;14780;48.316;-1.050;2022-10-19T15:55:28;7.28;;;3.85;;
18568;SDS011;14780;48.316;-1.050;2022-10-19T15:58:13;6.18;;;3.88;;
18568;SDS011;14780;48.316;-1.050;2022-10-19T16:00:58;8.60;;;4.10;;
18568;SDS011;14780;48.316;-1.050;2022-10-19T16:03:43;6.25;;;4.07;;
18568;SDS011;14780;48.316;-1.050;2022-10-19T16:06:29;9.23;;;4.35;;
18568;SDS011;14780;48.316;-1.050;2022-10-19T16:09:19;7.75;;;4.40;;
18568;SDS011;14780;48.316;-1.050;2022-10-19T16:12:04;7.28;;;4.00;;
18568;SDS011;14780;48.316;-1.050;2022-10-19T16:14:51;8.32;;;4.20;;
18568;SDS011;14780;48.316;-1.050;2022-10-19T16:17:37;7.85;;;4.07;;
18568;SDS011;14780;48.316;-1.050;2022-10-19T16:20:22;7.10;;;4.22;;
18568;SDS011;14780;48.316;-1.050;2022-10-19T16:23:08;5.25;;;3.53;;
18568;SDS011;14780;48.316;-1.050;2022-10-19T16:25:55;7.20;;;4.10;;
18568;SDS011;14780;48.316;-1.050;2022-10-19T16:28:40;7.80;;;3.95;;
18568;SDS011;14780;48.316;-1.050;2022-10-19T16:31:25;8.98;;;3.95;;
18568;SDS011;14780;48.316;-1.050;2022-10-19T16:34:10;11.63;;;4.82;;
18568;SDS011;14780;48.316;-1.050;2022-10-19T16:36:55;10.30;;;5.13;;
18568;SDS011;14780;48.316;-1.050;2022-10-19T16:39:39;12.88;;;4.82;;
18568;SDS011;14780;48.316;-1.050;2022-10-19T16:42:24;11.77;;;5.43;;
18568;SDS011;14780;48.316;-1.050;2022-10-19T16:45:09;9.75;;;4.97;;
18568;SDS011;14780;48.316;-1.050;2022-10-19T16:47:54;14.75;;;5.85;;
18568;SDS011;14780;48.316;-1.050;2022-10-19T16:50:39;20.98;;;7.05;;
18568;SDS011;14780;48.316;-1.050;2022-10-19T16:53:24;18.00;;;7.10;;
18568;SDS011;14780;48.316;-1.050;2022-10-19T16:56:09;20.70;;;6.90;;
18568;SDS011;14780;48.316;-1.050;2022-10-19T16:59:00;17.08;;;7.28;;
18568;SDS011;14780;48.316;-1.050;2022-10-19T17:01:47;13.43;;;6.57;;
18568;SDS011;14780;48.316;-1.050;2022-10-19T17:04:32;14.43;;;6.50;;
18568;SDS011;14780;48.316;-1.050;2022-10-19T17:07:17;14.60;;;6.75;;
18568;SDS011;14780;48.316;-1.050;2022-10-19T17:10:02;12.65;;;6.20;;
18568;SDS011;14780;48.316;-1.050;2022-10-19T17:12:47;16.75;;;6.40;;
18568;SDS011;14780;48.316;-1.050;2022-10-19T17:15:33;15.13;;;6.57;;
18568;SDS011;14780;48.316;-1.050;2022-10-19T17:18:19;14.23;;;6.05;;
18568;SDS011;14780;48.316;-1.050;2022-10-19T17:21:05;15.38;;;6.18;;
18568;SDS011;14780;48.316;-1.050;2022-10-19T17:23:52;16.05;;;6.90;;
18568;SDS011;14780;48.316;-1.050;2022-10-19T17:26:39;15.20;;;6.65;;
18568;SDS011;14780;48.316;-1.050;2022-10-19T17:29:27;17.45;;;6.45;;
18568;SDS011;14780;48.316;-1.050;2022-10-19T17:32:12;15.77;;;6.55;;
18568;SDS011;14780;48.316;-1.050;2022-10-19T17:34:57;13.57;;;6.05;;
18568;SDS011;14780;48.316;-1.050;2022-10-19T17:37:42;14.55;;;5.97;;
18568;SDS011;14780;48.316;-1.050;2022-10-19T17:40:26;16.90;;;6.28;;
18568;SDS011;14780;48.316;-1.050;2022-10-19T17:43:11;14.27;;;6.82;;
18568;SDS011;14780;48.316;-1.050;2022-10-19T17:46:02;13.18;;;5.95;;
18568;SDS011;14780;48.316;-1.050;2022-10-19T17:48:48;13.73;;;5.85;;
18568;SDS011;14780;48.316;-1.050;2022-10-19T17:51:34;14.98;;;5.93;;
18568;SDS011;14780;48.316;-1.050;2022-10-19T17:54:20;8.98;;;5.40;;
18568;SDS011;14780;48.316;-1.050;2022-10-19T17:57:04;13.60;;;5.45;;
18568;SDS011;14780;48.316;-1.050;2022-10-19T17:59:49;12.45;;;5.60;;
18568;SDS011;14780;48.316;-1.050;2022-10-19T18:02:37;12.57;;;6.25;;
18568;SDS011;14780;48.316;-1.050;2022-10-19T18:05:23;11.32;;;5.75;;
18568;SDS011;14780;48.316;-1.050;2022-10-19T18:08:07;12.68;;;5.95;;
18568;SDS011;14780;48.316;-1.050;2022-10-19T18:10:56;12.60;;;5.90;;
18568;SDS011;14780;48.316;-1.050;2022-10-19T18:13:42;11.60;;;5.20;;
18568;SDS011;14780;48.316;-1.050;2022-10-19T18:16:31;14.35;;;5.68;;
18568;SDS011;14780;48.316;-1.050;2022-10-19T18:19:17;11.40;;;5.35;;
18568;SDS011;14780;48.316;-1.050;2022-10-19T18:22:02;12.20;;;6.13;;
18568;SDS011;14780;48.316;-1.050;2022-10-19T18:24:47;12.18;;;5.82;;
18568;SDS011;14780;48.316;-1.050;2022-10-19T18:27:33;11.38;;;4.72;;
18568;SDS011;14780;48.316;-1.050;2022-10-19T18:30:18;12.50;;;5.93;;
18568;SDS011;14780;48.316;-1.050;2022-10-19T18:33:03;10.88;;;5.40;;
18568;SDS011;14780;48.316;-1.050;2022-10-19T18:35:48;9.73;;;5.25;;
18568;SDS011;14780;48.316;-1.050;2022-10-19T18:38:33;11.60;;;5.47;;
18568;SDS011;14780;48.316;-1.050;2022-10-19T18:41:18;13.82;;;4.93;;
18568;SDS011;14780;48.316;-1.050;2022-10-19T18:44:04;11.23;;;5.60;;
18568;SDS011;14780;48.316;-1.050;2022-10-19T18:46:49;13.88;;;5.22;;
18568;SDS011;14780;48.316;-1.050;2022-10-19T18:49:34;12.80;;;5.70;;
18568;SDS011;14780;48.316;-1.050;2022-10-19T18:52:18;10.50;;;5.00;;